CheckWX is a tool to help pilots better visualize weather data.  It is not intended as a substitute for an official pre-flight weather briefing.

08:04:43 UTC

UWGG TAF
Nizhny Novgorod International Airport
Nizhny Novgorod, Russian Federation
TAF UWGG 190455Z 1906/2006 17005G13MPS 9999 BKN010 TX05/1912Z TNM00/2003Z TEMPO 1912/1924 3500 -SHRASN BKN007CB

Mar-19@
06:00 UTC

Mar-19 @ 06:00 UTC

Mar-20@
06:00 UTC

Mar-20 @ 06:00 UTC

TAF UWGG 190455Z 1906/2006 17005G13MPS 9999 BKN010 TX05/1912Z TNM00/2003Z
Wind
  • 170° at 10 KTS
  • {Gusting to 25 KTS
Cloud Levels
  • Broken at 1,000' AGL

Mar-19@
12:00 UTC

Mar-19 @ 12:00 UTC

Mar-20@
00:00 UTC

Mar-20 @ 00:00 UTC

TEMPO 1912/1924 3500 -SHRASN BKN007CB

Temporary

Temporary Changes expected for less than half the time period

Conditions
Light Rain, Light Snow
Cloud Levels
  • Broken at 700' AGL